createdAt,value
2022-11-08T00:00:48.170Z,10.00
2022-11-08T00:03:18.065Z,9.90
2022-11-08T00:06:03.675Z,10.00
2022-11-08T00:08:49.299Z,9.70
2022-11-08T00:11:35.075Z,9.70
2022-11-08T00:14:03.829Z,9.60
2022-11-08T00:16:31.627Z,9.50
2022-11-08T00:18:58.933Z,9.40
2022-11-08T00:21:26.640Z,9.40
2022-11-08T00:23:54.585Z,9.50
2022-11-08T00:26:22.023Z,9.60
2022-11-08T00:28:49.361Z,9.90
2022-11-08T00:31:16.719Z,10.00
2022-11-08T00:33:44.185Z,9.90
2022-11-08T00:36:11.688Z,9.80
2022-11-08T00:38:43.400Z,9.90
2022-11-08T00:41:11.982Z,10.00
2022-11-08T00:43:39.349Z,10.00
2022-11-08T00:46:07.394Z,9.70
2022-11-08T00:48:35.314Z,9.30
2022-11-08T00:51:08.004Z,9.20
2022-11-08T00:53:38.409Z,9.30
2022-11-08T00:56:08.084Z,9.40
2022-11-08T00:58:35.357Z,9.50
2022-11-08T01:01:13.197Z,9.40
2022-11-08T01:03:41.062Z,9.30
2022-11-08T01:06:10.139Z,8.90
2022-11-08T01:08:37.916Z,8.70
2022-11-08T01:11:08.624Z,8.90
2022-11-08T01:13:35.804Z,9.00
2022-11-08T01:16:08.512Z,8.60
2022-11-08T01:18:36.582Z,8.40
2022-11-08T01:21:05.456Z,8.50
2022-11-08T01:23:33.766Z,8.70
2022-11-08T01:26:10.710Z,8.60
2022-11-08T01:28:38.572Z,8.50
2022-11-08T01:31:11.455Z,8.60
2022-11-08T01:33:39.532Z,8.60
2022-11-08T01:36:11.282Z,8.80
2022-11-08T01:38:38.849Z,8.90
2022-11-08T01:41:07.290Z,9.00
2022-11-08T01:43:39.151Z,9.20
2022-11-08T01:46:09.858Z,9.30
2022-11-08T01:48:46.635Z,9.40
2022-11-08T01:51:17.309Z,9.30
2022-11-08T01:53:45.774Z,9.20
2022-11-08T01:56:15.563Z,9.20
2022-11-08T01:58:48.111Z,9.10
2022-11-08T02:01:21.787Z,9.00
2022-11-08T02:03:49.421Z,8.90
2022-11-08T02:06:17.112Z,8.90
2022-11-08T02:08:45.083Z,9.00
2022-11-08T02:11:15.599Z,9.00
2022-11-08T02:13:43.086Z,9.20
2022-11-08T02:16:16.194Z,9.20
2022-11-08T02:18:45.724Z,9.30
2022-11-08T02:21:43.769Z,9.40
2022-11-08T02:24:13.392Z,9.40
2022-11-08T02:26:41.502Z,9.30
2022-11-08T02:29:30.819Z,9.30
2022-11-08T02:31:59.326Z,9.30
2022-11-08T02:34:36.967Z,9.30
2022-11-08T02:37:05.789Z,9.30
2022-11-08T02:39:34.844Z,8.90
2022-11-08T02:42:03.954Z,8.80
2022-11-08T02:44:31.207Z,8.70
2022-11-08T02:46:59.061Z,8.80
2022-11-08T02:49:26.914Z,8.80
2022-11-08T02:51:54.792Z,8.70
2022-11-08T02:54:22.153Z,8.80
2022-11-08T02:56:49.643Z,8.80
2022-11-08T02:59:17.004Z,8.90
2022-11-08T03:01:45.332Z,8.90
2022-11-08T03:04:12.892Z,9.00
2022-11-08T03:06:40.213Z,9.00
2022-11-08T03:09:07.705Z,9.00
2022-11-08T03:11:35.617Z,9.00
2022-11-08T03:14:03.996Z,8.80
2022-11-08T03:16:32.258Z,8.80
2022-11-08T03:18:59.581Z,8.80
2022-11-08T03:21:27.021Z,8.60
2022-11-08T03:23:54.272Z,8.60
2022-11-08T03:26:22.474Z,8.60
2022-11-08T03:28:49.699Z,8.60
2022-11-08T03:31:16.943Z,8.10
2022-11-08T03:33:44.301Z,8.10
2022-11-08T03:36:11.569Z,8.30
2022-11-08T03:38:38.840Z,8.30
2022-11-08T03:41:06.938Z,8.40
2022-11-08T03:43:34.317Z,8.20
2022-11-08T03:46:05.542Z,7.80
2022-11-08T03:48:35.195Z,7.80
2022-11-08T03:51:02.580Z,8.00
2022-11-08T03:53:30.240Z,8.00
2022-11-08T03:56:01.051Z,8.00
2022-11-08T03:58:28.779Z,7.90
2022-11-08T04:00:59.649Z,8.00
2022-11-08T04:03:27.297Z,8.20
2022-11-08T04:05:54.515Z,8.30
2022-11-08T04:08:21.932Z,8.50
2022-11-08T04:10:49.230Z,8.60
2022-11-08T04:13:34.945Z,8.60
2022-11-08T04:16:04.762Z,8.60
2022-11-08T04:18:50.964Z,8.40
2022-11-08T04:21:20.227Z,8.10
2022-11-08T04:23:49.496Z,8.00
2022-11-08T04:26:17.093Z,7.80
2022-11-08T04:28:44.697Z,7.80
2022-11-08T04:31:18.934Z,7.70
2022-11-08T04:33:46.765Z,7.80
2022-11-08T04:36:16.821Z,7.80
2022-11-08T04:38:47.523Z,7.90
2022-11-08T04:41:17.247Z,8.00
2022-11-08T04:43:44.876Z,8.00
2022-11-08T04:46:20.703Z,7.80
2022-11-08T04:48:53.424Z,7.80
2022-11-08T04:51:23.487Z,7.80
2022-11-08T04:53:50.822Z,7.80
2022-11-08T04:56:20.180Z,7.80
2022-11-08T05:02:43.019Z,7.40
2022-11-08T05:05:11.106Z,7.40
2022-11-08T05:08:25.624Z,7.20
2022-11-08T05:11:05.454Z,7.30
2022-11-08T05:13:33.255Z,7.50
2022-11-08T05:16:11.915Z,7.70
2022-11-08T05:18:41.827Z,7.90
2022-11-08T05:21:30.888Z,8.00
2022-11-08T05:23:59.848Z,8.10
2022-11-08T05:26:29.504Z,8.10
2022-11-08T05:29:00.905Z,8.00
2022-11-08T05:31:28.867Z,8.00
2022-11-08T05:33:57.744Z,7.90
2022-11-08T05:36:27.323Z,8.00
2022-11-08T05:38:56.358Z,8.00
2022-11-08T05:41:25.405Z,8.00
2022-11-08T05:43:55.275Z,7.90
2022-11-08T05:46:28.014Z,7.90
2022-11-08T05:48:58.071Z,7.90
2022-11-08T05:51:39.625Z,7.70
2022-11-08T05:54:08.276Z,7.50
2022-11-08T05:56:35.924Z,7.60
2022-11-08T05:59:03.318Z,7.70
2022-11-08T06:01:32.278Z,7.80
2022-11-08T06:04:00.170Z,7.80
2022-11-08T06:06:29.446Z,7.80
2022-11-08T06:08:58.108Z,7.30
2022-11-08T06:11:28.249Z,7.20
2022-11-08T06:13:56.822Z,7.30
2022-11-08T06:16:25.375Z,7.50
2022-11-08T06:18:52.898Z,7.60
2022-11-08T06:21:21.891Z,7.80
2022-11-08T06:23:53.726Z,7.90
2022-11-08T06:26:25.224Z,8.00
2022-11-08T06:28:53.168Z,8.00
2022-11-08T06:31:20.554Z,8.10
2022-11-08T06:33:48.350Z,8.30
2022-11-08T06:36:15.752Z,8.40
2022-11-08T06:38:43.170Z,8.40
2022-11-08T06:41:18.292Z,8.50
2022-11-08T06:43:45.656Z,8.50
2022-11-08T06:46:13.081Z,8.60
2022-11-08T06:48:40.482Z,8.80
2022-11-08T06:51:07.964Z,8.90
2022-11-08T06:53:35.679Z,9.00
2022-11-08T06:56:03.832Z,9.20
2022-11-08T06:58:32.560Z,9.40
2022-11-08T07:01:05.304Z,9.40
2022-11-08T07:03:33.824Z,9.50
2022-11-08T07:06:03.217Z,9.60
2022-11-08T07:08:31.941Z,9.70
2022-11-08T07:10:59.841Z,9.80
2022-11-08T07:13:28.355Z,9.80
2022-11-08T07:16:03.661Z,9.70
2022-11-08T07:18:31.509Z,9.60
2022-11-08T07:21:00.643Z,9.10
2022-11-08T07:23:29.396Z,8.80
2022-11-08T07:26:00.171Z,8.90
2022-11-08T07:28:28.369Z,9.00
2022-11-08T07:31:03.649Z,8.90
2022-11-08T07:33:32.790Z,8.90
2022-11-08T07:36:00.953Z,9.00
2022-11-08T07:38:30.371Z,9.20
2022-11-08T07:40:59.788Z,9.40
2022-11-08T07:43:29.830Z,9.60
2022-11-08T07:46:09.652Z,9.80
2022-11-08T07:48:37.745Z,10.00
2022-11-08T07:51:05.063Z,10.20
2022-11-08T07:53:32.625Z,10.40
2022-11-08T07:56:00.602Z,10.60
2022-11-08T07:58:28.501Z,10.80
2022-11-08T08:01:07.182Z,10.90
2022-11-08T08:03:34.964Z,10.80
2022-11-08T08:06:02.185Z,10.80
2022-11-08T08:08:31.215Z,10.90
2022-11-08T08:11:05.546Z,10.90
2022-11-08T08:13:33.199Z,11.10
2022-11-08T08:16:03.741Z,11.40
2022-11-08T08:18:31.263Z,11.70
2022-11-08T08:20:59.827Z,11.70
2022-11-08T08:23:28.574Z,11.70
2022-11-08T08:25:56.855Z,11.80
2022-11-08T08:28:24.578Z,11.90
2022-11-08T08:30:55.035Z,11.90
2022-11-08T08:33:30.879Z,12.00
2022-11-08T08:36:01.311Z,12.20
2022-11-08T08:38:29.586Z,12.30
2022-11-08T08:40:58.381Z,12.60
2022-11-08T08:43:28.500Z,12.80
2022-11-08T08:46:05.615Z,12.90
2022-11-08T08:48:33.880Z,13.10
2022-11-08T08:51:01.137Z,13.30
2022-11-08T08:53:28.679Z,13.50
2022-11-08T08:55:56.779Z,13.50
2022-11-08T08:58:24.581Z,13.50
2022-11-08T09:03:40.941Z,13.90
2022-11-08T09:06:08.411Z,14.00
2022-11-08T09:08:35.866Z,14.20
2022-11-08T09:11:03.873Z,14.30
2022-11-08T09:13:31.452Z,14.50
2022-11-08T09:16:05.422Z,14.60
2022-11-08T09:18:33.360Z,14.60
2022-11-08T09:21:01.175Z,14.80
2022-11-08T09:23:29.706Z,15.00
2022-11-08T09:26:01.432Z,15.30
2022-11-08T09:28:31.861Z,15.40
2022-11-08T09:31:06.766Z,15.50
2022-11-08T09:33:34.449Z,15.50
2022-11-08T09:36:04.114Z,15.80
2022-11-08T09:38:31.955Z,16.00
2022-11-08T09:41:05.329Z,16.30
2022-11-08T09:43:45.011Z,16.70
2022-11-08T09:46:18.835Z,17.40
2022-11-08T09:48:46.479Z,18.20
2022-11-08T09:51:16.482Z,19.00
2022-11-08T09:53:54.238Z,19.70
2022-11-08T09:56:21.575Z,20.90
2022-11-08T09:59:14.809Z,22.20
2022-11-08T10:01:42.898Z,23.30
2022-11-08T10:04:18.243Z,24.60
2022-11-08T10:07:02.224Z,25.50
2022-11-08T10:09:36.548Z,26.00
2022-11-08T10:12:03.854Z,26.40
2022-11-08T10:15:12.662Z,26.20
2022-11-08T10:18:00.183Z,26.40
2022-11-08T10:20:39.585Z,26.00
2022-11-08T10:23:22.078Z,26.40
2022-11-08T10:26:00.450Z,26.80
2022-11-08T10:28:47.656Z,26.40
2022-11-08T10:31:15.414Z,25.20
2022-11-08T10:33:54.885Z,24.40
2022-11-08T10:36:39.261Z,24.00
2022-11-08T10:39:09.583Z,24.60
2022-11-08T10:41:55.055Z,25.00
2022-11-08T10:44:24.557Z,24.50
2022-11-08T10:47:00.600Z,23.80
2022-11-08T10:49:44.786Z,23.10
2022-11-08T10:52:22.316Z,22.70
2022-11-08T10:55:06.361Z,22.50
2022-11-08T10:57:52.731Z,21.70
2022-11-08T11:00:45.005Z,20.90
2022-11-08T11:03:30.786Z,20.60
2022-11-08T11:06:03.066Z,20.50
2022-11-08T11:08:31.475Z,20.50
2022-11-08T11:11:37.552Z,20.50
2022-11-08T11:14:22.179Z,20.80
2022-11-08T11:16:57.535Z,21.20
2022-11-08T11:19:27.252Z,20.90
2022-11-08T11:22:13.126Z,20.70
2022-11-08T11:24:52.910Z,20.80
2022-11-08T11:27:27.469Z,20.80
2022-11-08T11:30:24.310Z,21.00
2022-11-08T11:33:30.704Z,20.50
2022-11-08T11:36:13.762Z,20.60
2022-11-08T11:39:07.084Z,21.00
2022-11-08T11:41:47.060Z,21.00
2022-11-08T11:44:21.009Z,20.90
2022-11-08T11:47:00.385Z,21.10
2022-11-08T11:49:30.629Z,21.40
2022-11-08T11:51:59.121Z,21.50
2022-11-08T11:54:31.949Z,21.70
2022-11-08T11:57:05.379Z,21.50
2022-11-08T12:00:14.551Z,21.10
2022-11-08T12:03:06.551Z,21.10
2022-11-08T12:05:39.489Z,21.30
2022-11-08T12:08:35.645Z,21.50
2022-11-08T12:11:12.323Z,21.80
2022-11-08T12:14:14.924Z,21.70
2022-11-08T12:17:04.808Z,21.30
2022-11-08T12:20:26.866Z,21.20
2022-11-08T12:23:06.943Z,21.30
2022-11-08T12:26:23.746Z,21.10
2022-11-08T12:29:12.580Z,21.10
2022-11-08T12:32:13.627Z,20.80
2022-11-08T12:34:53.083Z,21.10
2022-11-08T12:37:57.643Z,21.50
2022-11-08T12:40:35.924Z,21.90
2022-11-08T12:43:18.140Z,22.10
2022-11-08T12:46:09.467Z,22.30
2022-11-08T12:48:55.437Z,22.50
2022-11-08T12:51:28.398Z,22.50
2022-11-08T12:54:42.568Z,22.60
2022-11-08T12:57:14.723Z,22.60
2022-11-08T12:59:49.014Z,22.60
2022-11-08T13:02:22.151Z,22.30
2022-11-08T13:05:13.264Z,22.30
2022-11-08T13:07:49.865Z,22.50
2022-11-08T13:10:50.899Z,22.70
2022-11-08T13:13:46.619Z,22.80
2022-11-08T13:16:29.420Z,22.80
2022-11-08T13:19:10.157Z,22.00
2022-11-08T13:21:40.332Z,21.90
2022-11-08T13:24:38.027Z,21.50
2022-11-08T13:27:23.228Z,21.30
2022-11-08T13:29:57.203Z,21.30
2022-11-08T13:32:52.729Z,21.50
2022-11-08T13:35:37.951Z,21.90
2022-11-08T13:38:26.878Z,22.00
2022-11-08T13:41:14.999Z,21.70
2022-11-08T13:43:43.197Z,22.10
2022-11-08T13:46:26.149Z,22.40
2022-11-08T13:49:07.048Z,22.30
2022-11-08T13:51:36.633Z,22.10
2022-11-08T13:54:21.956Z,22.20
2022-11-08T13:56:53.097Z,22.10
2022-11-08T13:59:33.447Z,22.00
2022-11-08T14:02:05.919Z,22.00
2022-11-08T14:04:41.355Z,22.60
2022-11-08T14:07:31.310Z,22.90
2022-11-08T14:10:27.935Z,23.10
2022-11-08T14:13:23.009Z,23.30
2022-11-08T14:16:05.371Z,23.60
2022-11-08T14:18:38.842Z,24.60
2022-11-08T14:21:07.659Z,25.00
2022-11-08T14:23:40.481Z,25.50
2022-11-08T14:26:20.349Z,25.60
2022-11-08T14:28:48.406Z,25.80
2022-11-08T14:31:34.813Z,25.80
2022-11-08T14:34:03.396Z,26.00
2022-11-08T14:36:32.360Z,26.00
2022-11-08T14:39:17.775Z,26.40
2022-11-08T14:41:53.311Z,24.60
2022-11-08T14:44:21.766Z,24.20
2022-11-08T14:46:49.720Z,24.00
2022-11-08T14:49:28.054Z,22.90
2022-11-08T14:52:15.063Z,21.50
2022-11-08T14:54:45.535Z,19.80
2022-11-08T14:57:29.896Z,19.10
2022-11-08T14:59:57.819Z,18.30
2022-11-08T15:02:26.428Z,17.80
2022-11-08T15:04:54.169Z,17.60
2022-11-08T15:07:23.972Z,17.50
2022-11-08T15:09:51.914Z,17.40
2022-11-08T15:12:22.215Z,17.40
2022-11-08T15:14:55.062Z,17.30
2022-11-08T15:17:37.598Z,17.20
2022-11-08T15:20:22.367Z,17.40
2022-11-08T15:22:54.087Z,17.40
2022-11-08T15:25:38.362Z,17.20
2022-11-08T15:28:20.843Z,17.00
2022-11-08T15:31:07.543Z,16.60
2022-11-08T15:33:37.888Z,16.40
2022-11-08T15:36:18.129Z,16.40
2022-11-08T15:38:49.576Z,16.50
2022-11-08T15:41:26.241Z,16.40
2022-11-08T15:44:14.639Z,16.40
2022-11-08T15:46:42.957Z,16.60
2022-11-08T15:49:16.894Z,16.60
2022-11-08T15:51:44.290Z,16.60
2022-11-08T15:54:11.635Z,16.40
2022-11-08T15:56:41.257Z,16.20
2022-11-08T15:59:28.729Z,16.10
2022-11-08T16:02:01.747Z,16.00
2022-11-08T16:04:30.343Z,15.90
2022-11-08T16:06:58.246Z,15.80
2022-11-08T16:09:31.102Z,15.20
2022-11-08T16:11:58.569Z,14.50
2022-11-08T16:14:25.844Z,14.60
2022-11-08T16:16:53.265Z,14.60
2022-11-08T16:19:24.112Z,14.20
2022-11-08T16:21:52.543Z,14.30
2022-11-08T16:24:20.187Z,14.40
2022-11-08T16:26:49.212Z,14.40
2022-11-08T16:29:22.829Z,14.50
2022-11-08T16:31:51.662Z,14.40
2022-11-08T16:34:19.574Z,14.40
2022-11-08T16:36:49.102Z,14.30
2022-11-08T16:39:23.384Z,14.40
2022-11-08T16:41:50.664Z,14.60
2022-11-08T16:44:18.612Z,14.80
2022-11-08T16:46:46.308Z,14.90
2022-11-08T16:49:27.183Z,15.00
2022-11-08T16:51:54.670Z,14.80
2022-11-08T16:54:28.579Z,14.70
2022-11-08T16:57:20.751Z,14.70
2022-11-08T16:59:44.568Z,14.60
2022-11-08T17:02:25.059Z,14.50
2022-11-08T17:04:52.541Z,14.40
2022-11-08T17:07:19.992Z,14.40
2022-11-08T17:09:47.466Z,14.40
2022-11-08T17:12:15.243Z,14.40
2022-11-08T17:14:42.612Z,14.40
2022-11-08T17:17:12.351Z,14.40
2022-11-08T17:19:39.758Z,14.40
2022-11-08T17:22:07.707Z,14.20
2022-11-08T17:24:35.654Z,14.10
2022-11-08T17:27:04.086Z,13.90
2022-11-08T17:29:31.432Z,13.90
2022-11-08T17:31:58.661Z,13.90
2022-11-08T17:34:26.096Z,13.90
2022-11-08T17:36:53.883Z,13.90
2022-11-08T17:39:21.314Z,13.70
2022-11-08T17:41:49.044Z,13.60
2022-11-08T17:44:16.895Z,13.60
2022-11-08T17:46:44.710Z,13.70
2022-11-08T17:49:12.918Z,13.10
2022-11-08T17:51:51.786Z,12.90
2022-11-08T17:54:19.479Z,12.90
2022-11-08T17:56:46.794Z,13.00
2022-11-08T17:59:15.475Z,13.10
2022-11-08T18:01:43.123Z,13.30
2022-11-08T18:04:11.697Z,13.00
2022-11-08T18:06:39.071Z,12.50
2022-11-08T18:09:08.196Z,12.10
2022-11-08T18:11:36.915Z,12.20
2022-11-08T18:14:07.571Z,12.30
2022-11-08T18:16:35.400Z,12.50
2022-11-08T18:19:02.765Z,12.60
2022-11-08T18:21:30.862Z,12.70
2022-11-08T18:24:00.072Z,12.70
2022-11-08T18:26:27.871Z,12.80
2022-11-08T18:28:55.450Z,12.90
2022-11-08T18:31:23.738Z,12.70
2022-11-08T18:33:51.240Z,12.40
2022-11-08T18:36:27.085Z,12.50
2022-11-08T18:38:56.409Z,12.50
2022-11-08T18:41:26.503Z,12.60
2022-11-08T18:43:55.071Z,12.70
2022-11-08T18:46:25.985Z,12.50
2022-11-08T18:48:54.272Z,12.30
2022-11-08T18:51:22.683Z,12.30
2022-11-08T18:53:50.183Z,12.30
2022-11-08T18:56:19.823Z,12.30
2022-11-08T18:58:48.917Z,12.40
2022-11-08T19:01:16.540Z,12.50
2022-11-08T19:03:44.136Z,12.40
2022-11-08T19:06:14.566Z,12.20
2022-11-08T19:08:41.946Z,12.10
2022-11-08T19:11:13.243Z,12.00
2022-11-08T19:13:41.285Z,11.90
2022-11-08T19:16:18.400Z,11.50
2022-11-08T19:18:47.084Z,11.40
2022-11-08T19:21:25.651Z,11.50
2022-11-08T19:23:58.004Z,11.70
2022-11-08T19:26:27.665Z,11.80
2022-11-08T19:28:55.762Z,12.00
2022-11-08T19:31:25.593Z,12.10
2022-11-08T19:33:55.015Z,12.20
2022-11-08T19:36:25.445Z,12.20
2022-11-08T19:38:55.034Z,12.20
2022-11-08T19:41:25.544Z,12.20
2022-11-08T19:43:53.384Z,12.10
2022-11-08T19:46:29.373Z,12.00
2022-11-08T19:49:04.019Z,12.10
2022-11-08T19:51:34.058Z,12.10
2022-11-08T19:54:07.005Z,12.20
2022-11-08T19:57:03.996Z,12.20
2022-11-08T19:59:24.255Z,11.90
2022-11-08T20:01:51.645Z,11.00
2022-11-08T20:04:19.019Z,10.80
2022-11-08T20:06:46.600Z,10.90
2022-11-08T20:09:14.138Z,11.10
2022-11-08T20:11:42.522Z,11.10
2022-11-08T20:14:12.920Z,11.40
2022-11-08T20:16:43.003Z,11.50
2022-11-08T20:19:16.633Z,11.10
2022-11-08T20:21:46.477Z,11.00
2022-11-08T20:24:14.751Z,11.00
2022-11-08T20:26:42.619Z,10.90
2022-11-08T20:29:10.460Z,11.10
2022-11-08T20:31:39.479Z,11.10
2022-11-08T20:34:11.871Z,11.10
2022-11-08T20:36:41.137Z,10.90
2022-11-08T20:39:08.443Z,11.00
2022-11-08T20:41:38.880Z,11.20
2022-11-08T20:44:08.098Z,11.20
2022-11-08T20:46:36.972Z,11.30
2022-11-08T20:49:05.833Z,11.40
2022-11-08T20:51:34.365Z,11.50
2022-11-08T20:54:02.021Z,11.40
2022-11-08T20:56:30.092Z,11.40
2022-11-08T20:58:57.701Z,11.50
2022-11-08T21:01:28.070Z,11.50
2022-11-08T21:03:55.857Z,10.90
2022-11-08T21:06:25.123Z,10.40
2022-11-08T21:11:41.532Z,10.60
2022-11-08T21:14:09.285Z,10.80
2022-11-08T21:17:06.563Z,10.80
2022-11-08T21:19:26.162Z,10.70
2022-11-08T21:22:13.860Z,10.80
2022-11-08T21:24:42.073Z,11.00
2022-11-08T21:27:10.338Z,11.10
2022-11-08T21:29:38.119Z,11.10
2022-11-08T21:32:06.216Z,11.10
2022-11-08T21:34:34.433Z,11.10
2022-11-08T21:37:01.679Z,10.90
2022-11-08T21:39:28.936Z,10.50
2022-11-08T21:41:56.256Z,10.50
2022-11-08T21:44:23.514Z,10.50
2022-11-08T21:46:50.880Z,10.60
2022-11-08T21:49:18.532Z,10.60
2022-11-08T21:51:45.872Z,10.70
2022-11-08T21:54:13.219Z,10.90
2022-11-08T21:56:40.781Z,10.80
2022-11-08T21:59:08.130Z,10.50
2022-11-08T22:01:36.115Z,10.60
2022-11-08T22:04:03.710Z,10.80
2022-11-08T22:06:31.521Z,10.90
2022-11-08T22:08:59.082Z,10.90
2022-11-08T22:11:26.377Z,10.70
2022-11-08T22:13:53.576Z,10.70
2022-11-08T22:16:20.957Z,10.60
2022-11-08T22:19:05.240Z,10.60
2022-11-08T22:21:40.998Z,10.60
2022-11-08T22:24:22.029Z,10.50
2022-11-08T22:26:50.908Z,10.50
2022-11-08T22:29:18.523Z,10.50
2022-11-08T22:31:46.347Z,10.60
2022-11-08T22:34:14.587Z,10.70
2022-11-08T22:36:45.259Z,10.70
2022-11-08T22:39:20.785Z,10.00
2022-11-08T22:41:49.731Z,9.90
2022-11-08T22:44:17.598Z,9.80
2022-11-08T22:46:46.771Z,9.90
2022-11-08T22:49:15.308Z,9.80
2022-11-08T22:51:43.910Z,10.00
2022-11-08T22:54:11.707Z,10.10
2022-11-08T22:56:40.453Z,10.30
2022-11-08T22:59:08.252Z,10.50
2022-11-08T23:01:36.267Z,10.60
2022-11-08T23:04:04.212Z,10.10
2022-11-08T23:06:31.872Z,9.60
2022-11-08T23:08:59.982Z,9.60
2022-11-08T23:11:45.763Z,9.60
2022-11-08T23:14:36.835Z,9.70
2022-11-08T23:17:06.244Z,10.00
2022-11-08T23:19:51.842Z,10.10
2022-11-08T23:22:39.420Z,10.10
2022-11-08T23:25:07.589Z,9.70
2022-11-08T23:27:53.730Z,9.50
2022-11-08T23:30:43.858Z,9.70
2022-11-08T23:33:13.250Z,10.00
2022-11-08T23:36:00.650Z,10.20
2022-11-08T23:38:27.919Z,10.10
2022-11-08T23:41:17.411Z,9.80
2022-11-08T23:44:03.523Z,9.50
2022-11-08T23:46:31.285Z,9.50
2022-11-08T23:48:58.634Z,9.70
2022-11-08T23:51:25.948Z,9.80
2022-11-08T23:53:53.241Z,10.00
2022-11-08T23:56:26.388Z,9.70
2022-11-08T23:58:55.826Z,9.60
